Latest Weather Observations for Melbourne (Olympic Park)

IDV60901

Issued at 10:31 am EST Wednesday 8 July 2015 (issued every 10 minutes, with the page automatically refreshed every 10 minutes)

About weather observations | Map of Melbourne area stations | Latest observations for Melbourne area | Other Formats
Station Details ID: 086338 Name: MELBOURNE (OLYMPIC PARK) Lat: -37.83 Lon: 144.98 Height: 7.53 m
Data from the previous 72 hours. | See also: Recent months at Melbourne (Olympic Park)
Date/Time
EST
Tmp

°C
App
Tmp
°C
Dew
Point
°C
Rel
Hum
%
Delta-T

°C
Wind Press
QNH
hPa
Press
MSL
hPa
Rain
since
9 am
mm
Dir
 
Spd
km/h
Gust
km/h
Spd
kts
Gust
kts
08/10:30am 10.1 7.5 6.1 76 1.8 NNE 9 11 5 6 1027.7 1027.7 0.0
08/10:00am 8.6 5.5 5.7 82 1.3 NNE 11 13 6 7 1027.7 1027.7 0.0
08/09:30am 7.2 4.4 5.2 87 0.9 NNE 9 13 5 7 1027.6 1027.6 0.0
08/09:00am 6.5 3.7 5.3 92 0.5 NNE 9 13 5 7 1027.4 1027.4 0.2
08/08:30am 5.2 2.3 4.6 96 0.3 NNE 9 13 5 7 1027.3 1027.3 0.2
08/08:00am 5.1 2.2 4.5 96 0.3 NNE 9 13 5 7 1027.0 1027.0 0.2
08/07:30am 5.0 1.7 4.3 95 0.3 NNE 11 15 6 8 1026.8 1026.8 0.2
08/07:00am 5.0 2.1 4.4 96 0.3 NNE 9 13 5 7 1026.5 1026.5 0.2
08/06:30am 5.2 2.3 4.8 97 0.2 NNE 9 11 5 6 1026.1 1026.1 0.2
08/06:00am 5.2 2.7 4.8 97 0.2 NNE 7 11 4 6 1026.0 1026.0 0.2
08/05:30am 5.3 2.5 5.0 98 0.1 NNE 9 11 5 6 1025.7 1025.7 0.2
08/05:00am 5.6 2.8 5.3 98 0.1 NNE 9 13 5 7 1025.6 1025.6 0.2
08/04:30am 5.7 3.3 5.4 98 0.1 NNE 7 11 4 6 1025.5 1025.5 0.2
08/04:00am 5.9 3.8 5.8 99 0.0 NNE 6 9 3 5 1025.7 1025.7 0.2
08/03:30am 6.2 3.6 6.1 99 0.0 NE 9 11 5 6 1025.7 1025.7 0.2
08/03:00am 6.5 4.4 6.5 100 0.0 NNE 7 11 4 6 1025.6 1025.6 0.2
08/02:30am 6.7 4.2 6.7 100 0.0 NE 9 13 5 7 1025.6 1025.6 0.2
08/02:00am 6.4 5.6 6.4 100 0.0 CALM 0 0 0 0 1025.5 1025.5 0.2
08/01:30am 6.4 5.6 6.4 100 0.0 CALM 0 0 0 0 1025.4 1025.4 0.2
08/01:00am 6.8 5.7 6.8 100 0.0 SE 2 6 1 3 1025.2 1025.2 0.2
08/12:30am 6.8 6.1 6.8 100 0.0 CALM 0 0 0 0 1025.2 1025.2 0.2
08/12:00am 7.2 6.5 7.1 99 0.0 CALM 0 0 0 0 1025.1 1025.1 0.2
 
Date/Time
EST
Tmp

°C
App
Tmp
°C
Dew
Point
°C
Rel
Hum
%
Delta-T

°C
Wind Press
QNH
hPa
Press
MSL
hPa
Rain
since
9 am
mm
Dir
 
Spd
km/h
Gust
km/h
Spd
kts
Gust
kts
07/11:30pm 7.7 7.1 7.4 98 0.1 CALM 0 0 0 0 1025.2 1025.2 0.2
07/11:00pm 8.1 7.5 7.5 96 0.3 CALM 0 0 0 0 1025.1 1025.1 0.2
07/10:30pm 8.6 8.1 7.7 94 0.4 CALM 0 0 0 0 1025.0 1025.0 0.2
07/10:00pm 9.1 8.6 8.0 93 0.5 CALM 0 0 0 0 1025.0 1025.0 0.2
07/09:30pm 9.6 9.2 8.2 91 0.7 CALM 0 0 0 0 1024.9 1024.9 0.2
07/09:00pm 10.0 9.5 7.9 87 1.0 CALM 0 0 0 0 1024.7 1024.7 0.2
07/08:30pm 10.7 10.3 8.1 84 1.3 CALM 0 0 0 0 1024.5 1024.5 0.2
07/08:00pm 11.2 10.8 8.2 82 1.5 CALM 0 4 0 2 1024.3 1024.3 0.2
07/07:30pm 11.5 10.3 8.0 79 1.7 S 4 11 2 6 1024.1 1024.1 0.2
07/07:00pm 11.6 10.3 7.7 77 1.9 SSE 4 9 2 5 1024.1 1024.1 0.2
07/06:30pm 12.1 10.3 7.8 75 2.1 SE 7 15 4 8 1023.8 1023.8 0.2
07/06:00pm 11.5 10.5 8.9 84 1.3 SSE 4 11 2 6 1023.7 1023.7 0.2
07/05:30pm 11.4 10.4 9.0 85 1.2 SSW 4 7 2 4 1023.5 1023.5 0.2
07/05:00pm 11.5 10.1 8.7 83 1.4 SW 6 9 3 5 1023.4 1023.4 0.2
07/04:30pm 11.7 10.0 8.4 80 1.6 SSW 7 11 4 6 1023.2 1023.2 0.2
07/04:00pm 12.0 10.1 7.7 75 2.1 S 7 13 4 7 1023.0 1023.0 0.2
07/03:30pm 12.0 9.8 7.7 75 2.1 SSW 9 15 5 8 1022.8 1022.8 0.2
07/03:00pm 12.0 9.4 7.7 75 2.1 SSW 11 17 6 9 1022.6 1022.6 0.0
07/02:30pm 12.8 10.8 7.3 69 2.7 SSW 7 13 4 7 1022.3 1022.3 0.0
07/02:00pm 12.9 10.2 7.4 69 2.7 SSW 11 17 6 9 1022.2 1022.2 0.0
07/01:30pm 13.4 11.1 7.4 67 2.9 SSW 9 15 5 8 1022.3 1022.3 0.0
07/01:00pm 12.6 10.3 7.3 70 2.6 SSW 9 13 5 7 1022.5 1022.5 0.0
07/12:30pm 13.7 12.7 7.2 65 3.2 NW 2 7 1 4 1022.6 1022.6 0.0
07/12:00pm 12.5 11.7 6.5 67 2.8 CALM 0 0 0 0 1022.7 1022.7 0.0
07/11:30am 12.9 11.1 7.1 68 2.8 NW 6 9 3 5 1023.1 1023.1 0.0
07/11:00am 12.5 10.1 7.0 69 2.6 N 9 11 5 6 1023.2 1023.2 0.0
07/10:30am 11.1 8.7 7.2 77 1.9 NNE 9 11 5 6 1023.1 1023.1 0.0
07/10:00am 10.1 7.7 7.0 81 1.5 NNE 9 13 5 7 1023.0 1023.0 0.0
07/09:30am 9.9 7.5 7.0 82 1.4 NNE 9 13 5 7 1022.8 1022.8 0.0
07/09:00am 9.5 7.5 6.9 84 1.2 N 7 13 4 7 1022.5 1022.5 2.2
07/08:30am 9.2 7.2 7.0 86 1.0 NE 7 9 4 5 1022.5 1022.5 2.2
07/08:00am 8.9 7.8 7.0 88 0.9 NE 2 7 1 4 1022.1 1022.1 2.2
07/07:30am 8.8 6.9 6.9 88 0.9 NE 6 9 3 5 1021.7 1021.7 2.2
07/07:00am 8.6 6.2 7.1 90 0.7 NNE 9 11 5 6 1021.2 1021.2 2.2
07/06:30am 8.5 6.6 6.8 89 0.8 NNE 6 9 3 5 1020.8 1020.8 2.2
07/06:00am 8.5 6.4 6.8 89 0.8 N 7 13 4 7 1020.3 1020.3 2.2
07/05:30am 8.6 6.6 6.9 89 0.8 NNE 7 9 4 5 1020.1 1020.1 2.2
07/05:00am 8.5 6.4 6.6 88 0.9 NNE 7 9 4 5 1020.0 1020.0 2.2
07/04:30am 8.5 6.4 6.6 88 0.9 NNE 7 11 4 6 1019.8 1019.8 2.2
07/04:00am 8.5 6.6 6.5 87 0.9 NNE 6 9 3 5 1019.7 1019.7 2.2
07/03:30am 8.6 6.1 6.4 86 1.0 NE 9 11 5 6 1019.6 1019.6 2.2
07/03:00am 8.9 6.3 6.0 82 1.3 NNE 9 13 5 7 1019.5 1019.5 2.2
07/02:30am 9.0 6.7 5.6 79 1.5 NNE 7 13 4 7 1019.4 1019.4 2.2
07/02:00am 9.1 6.4 5.7 79 1.5 NNE 9 13 5 7 1019.1 1019.1 2.2
07/01:30am 9.0 6.3 5.7 80 1.5 NNE 9 13 5 7 1018.9 1018.9 2.2
07/01:00am 8.9 5.8 5.6 80 1.5 NNE 11 15 6 8 1018.7 1018.7 2.2
07/12:30am 9.1 6.4 5.8 80 1.5 N 9 15 5 8 1018.6 1018.6 2.2
07/12:00am 9.1 6.1 5.8 80 1.5 N 11 20 6 11 1018.6 1018.6 2.2
 
Date/Time
EST
Tmp

°C
App
Tmp
°C
Dew
Point
°C
Rel
Hum
%
Delta-T

°C
Wind Press
QNH
hPa
Press
MSL
hPa
Rain
since
9 am
mm
Dir
 
Spd
km/h
Gust
km/h
Spd
kts
Gust
kts
06/11:30pm 9.0 5.2 5.6 79 1.5 N 15 20 8 11 1018.6 1018.6 2.2
06/11:00pm 9.1 5.7 5.7 79 1.5 N 13 20 7 11 1018.6 1018.6 2.2
06/10:30pm 9.2 5.8 5.8 79 1.6 N 13 17 7 9 1018.5 1018.5 2.2
06/10:00pm 9.2 6.6 5.9 80 1.5 N 9 15 5 8 1018.5 1018.5 2.2
06/09:30pm 9.2 5.4 5.8 79 1.6 N 15 20 8 11 1018.2 1018.2 2.2
06/09:00pm 9.1 4.9 5.7 79 1.5 N 17 24 9 13 1018.1 1018.1 2.2
06/08:30pm 8.9 4.8 6.0 82 1.3 N 17 24 9 13 1018.0 1018.0 2.2
06/08:00pm 8.8 4.3 5.9 82 1.3 N 19 26 10 14 1017.6 1017.6 2.2
06/07:30pm 8.8 5.4 6.1 83 1.2 N 13 24 7 13 1017.5 1017.5 2.0
06/07:00pm 9.2 5.1 6.1 81 1.4 N 17 24 9 13 1017.5 1017.5 1.6
06/06:30pm 9.4 6.0 6.1 80 1.5 N 13 20 7 11 1017.1 1017.1 1.4
06/06:00pm 9.6 6.3 6.3 80 1.5 N 13 19 7 10 1016.7 1016.7 1.4
06/05:30pm 9.6 5.5 6.1 79 1.6 N 17 24 9 13 1016.2 1016.2 1.4
06/05:00pm 9.7 6.0 6.4 80 1.5 NNW 15 24 8 13 1016.0 1016.0 1.4
06/04:30pm 10.2 6.1 6.2 76 1.9 N 17 22 9 12 1015.7 1015.7 1.0
06/04:00pm 10.4 6.2 5.6 72 2.2 N 17 26 9 14 1015.6 1015.6 0.8
06/03:30pm 11.0 5.9 4.2 63 3.0 N 20 30 11 16 1015.4 1015.4 0.8
06/03:00pm 11.3 6.2 4.1 61 3.2 N 20 30 11 16 1015.3 1015.3 0.8
06/02:30pm 11.1 5.2 3.9 61 3.2 N 24 35 13 19 1015.1 1015.1 0.8
06/02:00pm 11.3 6.4 4.1 61 3.2 N 19 30 10 16 1015.4 1015.4 0.8
06/01:30pm 10.9 5.8 4.1 63 3.0 N 20 32 11 17 1015.5 1015.5 0.8
06/01:00pm 10.7 5.3 4.4 65 2.8 N 22 37 12 20 1015.8 1015.8 0.8
06/12:30pm 10.3 4.5 4.2 66 2.7 N 24 41 13 22 1016.0 1016.0 0.8
06/12:00pm 10.1 5.1 4.7 69 2.4 N 20 30 11 16 1016.3 1016.3 0.8
06/11:30am 9.7 4.8 5.3 74 2.0 N 20 33 11 18 1016.4 1016.4 0.8
06/11:00am 9.1 4.4 5.1 76 1.8 N 19 26 10 14 1016.7 1016.7 0.8
06/10:30am 8.8 4.0 5.5 80 1.5 N 20 28 11 15 1016.9 1016.9 0.8
06/10:00am 8.5 4.7 6.0 84 1.1 N 15 26 8 14 1016.8 1016.8 0.8
06/09:30am 7.7 3.1 5.7 87 0.9 N 19 26 10 14 1016.9 1016.9 0.8
06/09:00am 7.5 2.8 5.3 86 1.0 N 19 26 10 14 1017.0 1017.0 1.6
06/08:30am 7.7 2.9 4.7 81 1.3 N 19 33 10 18 1016.9 1016.9 0.6
06/08:00am 8.4 3.5 4.0 74 1.9 N 19 28 10 15 1016.6 1016.6 0.2
06/07:30am 8.6 4.4 3.6 71 2.2 N 15 24 8 13 1016.5 1016.5 0.2
06/07:00am 8.7 4.1 3.5 70 2.2 N 17 26 9 14 1016.5 1016.5 0.0
06/06:30am 8.9 4.5 2.9 66 2.6 N 15 26 8 14 1016.4 1016.4 0.0
06/06:00am 9.1 4.4 3.1 66 2.6 N 17 30 9 16 1016.3 1016.3 0.0
06/05:30am 9.1 4.4 2.9 65 2.6 N 17 28 9 15 1016.3 1016.3 0.0
06/05:00am 9.1 4.4 2.9 65 2.6 N 17 24 9 13 1016.3 1016.3 0.0
06/04:30am 9.1 4.4 3.1 66 2.6 N 17 26 9 14 1016.3 1016.3 0.0
06/04:00am 9.3 4.0 3.1 65 2.7 N 20 28 11 15 1016.4 1016.4 0.0
06/03:30am 9.3 3.6 3.1 65 2.7 N 22 32 12 17 1016.5 1016.5 0.0
06/03:00am 9.3 3.7 3.3 66 2.6 N 22 37 12 20 1016.7 1016.7 0.0
06/02:30am 9.2 3.9 3.2 66 2.6 N 20 35 11 19 1016.9 1016.9 0.0
06/02:00am 9.3 4.0 3.1 65 2.7 N 20 32 11 17 1017.1 1017.1 0.0
06/01:30am 9.4 4.1 3.2 65 2.7 N 20 28 11 15 1017.2 1017.2 0.0
06/01:00am 9.5 4.4 3.3 65 2.7 N 19 28 10 15 1017.4 1017.4 0.0
06/12:30am 9.6 4.3 3.1 64 2.8 N 20 30 11 16 1017.6 1017.6 0.0
06/12:00am 9.7 4.4 3.2 64 2.8 N 20 33 11 18 1017.7 1017.7 0.0
 
Date/Time
EST
Tmp

°C
App
Tmp
°C
Dew
Point
°C
Rel
Hum
%
Delta-T

°C
Wind Press
QNH
hPa
Press
MSL
hPa
Rain
since
9 am
mm
Dir
 
Spd
km/h
Gust
km/h
Spd
kts
Gust
kts
05/11:30pm 9.8 4.5 3.1 63 2.9 N 20 32 11 17 1017.8 1017.8 0.0
05/11:00pm 9.7 4.4 3.2 64 2.8 N 20 28 11 15 1017.8 1017.8 0.0
05/10:30pm 10.0 5.4 3.5 64 2.8 N 17 28 9 15 1017.8 1017.8 0.0
05/10:00pm 10.1 5.8 3.4 63 2.9 N 15 30 8 16 1018.0 1018.0 0.0
05/09:30pm 10.3 5.2 3.3 62 3.0 N 19 30 10 16 1018.1 1018.1 0.0
05/09:00pm 10.7 6.0 3.3 60 3.2 N 17 24 9 13 1018.2 1018.2 0.0
05/08:30pm 10.9 6.3 3.5 60 3.3 N 17 30 9 16 1018.2 1018.2 0.0
05/08:00pm 11.1 6.4 3.4 59 3.4 N 17 26 9 14 1018.2 1018.2 0.0
05/07:30pm 11.3 7.4 3.6 59 3.4 N 13 22 7 12 1018.2 1018.2 0.0
05/07:00pm 11.3 7.1 3.8 60 3.3 N 15 22 8 12 1018.0 1018.0 0.0
05/06:30pm 11.4 7.6 3.7 59 3.4 NNE 13 20 7 11 1018.0 1018.0 0.0
05/06:00pm 12.2 7.2 3.7 56 3.8 N 19 30 10 16 1017.9 1017.9 0.0
05/05:30pm 12.2 8.1 4.2 58 3.6 N 15 20 8 11 1017.6 1017.6 0.0
05/05:00pm 12.8 7.9 4.0 55 4.0 N 19 30 10 16 1017.5 1017.5 0.0
05/04:30pm 13.1 8.6 4.3 55 4.0 N 17 28 9 15 1017.6 1017.6 0.0
05/04:00pm 13.5 9.0 4.4 54 4.2 N 17 24 9 13 1017.6 1017.6 0.0
05/03:30pm 13.2 8.7 4.4 55 4.0 NNE 17 24 9 13 1017.6 1017.6 0.0
05/03:00pm 13.6 9.2 4.5 54 4.2 N 17 28 9 15 1017.7 1017.7 0.0
05/02:30pm 13.6 8.5 4.2 53 4.3 N 20 35 11 19 1017.9 1017.9 0.0
05/02:00pm 14.7 9.9 4.4 50 4.8 N 19 30 10 16 1018.0 1018.0 0.0
05/01:30pm 14.6 9.7 4.9 52 4.5 N 20 30 11 16 1018.0 1018.0 0.0
05/01:00pm 13.8 8.7 4.1 52 4.4 N 20 30 11 16 1018.3 1018.3 0.0
05/12:30pm 14.3 9.5 4.6 52 4.5 N 19 32 10 17 1018.6 1018.6 0.0
05/12:00pm 13.3 8.2 4.2 54 4.1 N 20 32 11 17 1019.0 1019.0 0.0
05/11:30am 12.9 8.4 4.1 55 4.0 N 17 28 9 15 1019.5 1019.5 0.0
05/11:00am 12.1 7.6 4.3 59 3.5 N 17 24 9 13 1020.0 1020.0 0.0

Latest Capital City Observations: Canberra | Sydney | Melbourne | Brisbane | Adelaide | Perth | Hobart | Darwin

Other Formats:

Comma delimited format used in spreadsheet applications
http://www.bom.gov.au/fwo/IDV60901/IDV60901.95936.axf

JavaScript Object Notation format (JSON) in row-major order
http://www.bom.gov.au/fwo/IDV60901/IDV60901.95936.json